createdAt,value
2018-11-03T00:01:09.420Z,11.45
2018-11-03T00:03:37.743Z,11.19
2018-11-03T00:06:06.097Z,11.24
2018-11-03T00:08:34.431Z,11.06
2018-11-03T00:11:02.941Z,11.30
2018-11-03T00:13:31.315Z,11.14
2018-11-03T00:15:59.712Z,11.43
2018-11-03T00:18:28.116Z,11.59
2018-11-03T00:20:56.472Z,11.49
2018-11-03T00:23:24.991Z,10.95
2018-11-03T00:25:53.334Z,10.62
2018-11-03T00:28:21.715Z,11.01
2018-11-03T00:30:50.024Z,10.72
2018-11-03T00:33:18.340Z,10.56
2018-11-03T00:35:46.666Z,10.64
2018-11-03T00:38:15.027Z,11.07
2018-11-03T00:40:43.472Z,10.90
2018-11-03T00:43:11.929Z,11.00
2018-11-03T00:45:40.244Z,10.87
2018-11-03T00:48:08.637Z,10.98
2018-11-03T00:50:37.056Z,11.32
2018-11-03T00:53:05.795Z,11.07
2018-11-03T00:55:34.280Z,11.05
2018-11-03T00:58:03.504Z,11.09
2018-11-03T01:00:31.983Z,11.12
2018-11-03T01:03:00.292Z,11.00
2018-11-03T01:05:28.634Z,10.82
2018-11-03T01:07:57.071Z,11.03
2018-11-03T01:10:25.387Z,11.21
2018-11-03T01:12:53.863Z,10.81
2018-11-03T01:15:22.232Z,10.95
2018-11-03T01:17:50.644Z,10.73
2018-11-03T01:20:19.002Z,11.26
2018-11-03T01:22:47.375Z,10.77
2018-11-03T01:25:15.763Z,10.44
2018-11-03T01:27:44.137Z,10.79
2018-11-03T01:30:14.343Z,10.68
2018-11-03T01:32:42.830Z,10.70
2018-11-03T01:35:11.338Z,10.80
2018-11-03T01:37:40.325Z,10.97
2018-11-03T01:40:09.925Z,11.19
2018-11-03T01:42:38.595Z,11.27
2018-11-03T01:45:07.108Z,10.89
2018-11-03T01:47:35.891Z,10.65
2018-11-03T01:50:06.292Z,10.39
2018-11-03T01:52:35.313Z,10.61
2018-11-03T01:55:03.880Z,10.91
2018-11-03T01:57:32.352Z,10.89
2018-11-03T02:00:00.721Z,10.76
2018-11-03T02:02:29.019Z,10.66
2018-11-03T02:04:57.320Z,10.99
2018-11-03T02:07:25.719Z,10.92
2018-11-03T02:09:54.160Z,11.01
2018-11-03T02:12:22.480Z,10.95
2018-11-03T02:14:50.874Z,10.69
2018-11-03T02:17:19.245Z,10.92
2018-11-03T02:19:47.557Z,11.07
2018-11-03T02:22:15.952Z,10.42
2018-11-03T02:24:44.330Z,10.55
2018-11-03T02:27:12.695Z,10.61
2018-11-03T02:29:41.018Z,10.89
2018-11-03T02:32:09.391Z,11.02
2018-11-03T02:34:37.721Z,10.73
2018-11-03T02:37:06.068Z,10.73
2018-11-03T02:39:34.438Z,10.68
2018-11-03T02:42:02.773Z,10.74
2018-11-03T02:44:31.172Z,10.61
2018-11-03T02:46:59.529Z,10.45
2018-11-03T02:49:27.912Z,9.82
2018-11-03T02:51:56.252Z,10.32
2018-11-03T02:54:24.587Z,10.30
2018-11-03T02:56:53.030Z,10.50
2018-11-03T02:59:21.440Z,10.37
2018-11-03T03:01:49.835Z,10.50
2018-11-03T03:04:18.251Z,10.36
2018-11-03T03:06:46.579Z,10.42
2018-11-03T03:09:15.116Z,10.45
2018-11-03T03:11:43.448Z,10.57
2018-11-03T03:14:11.824Z,9.80
2018-11-03T03:16:40.262Z,10.16
2018-11-03T03:19:08.655Z,10.39
2018-11-03T03:21:37.106Z,10.17
2018-11-03T03:24:05.444Z,10.15
2018-11-03T03:26:33.803Z,10.41
2018-11-03T03:29:02.230Z,9.92
2018-11-03T03:31:30.541Z,9.71
2018-11-03T03:33:58.889Z,10.18
2018-11-03T03:36:27.163Z,10.10
2018-11-03T03:38:55.512Z,9.69
2018-11-03T03:41:24.051Z,10.29
2018-11-03T03:43:52.320Z,9.89
2018-11-03T03:46:20.707Z,9.79
2018-11-03T03:48:49.133Z,10.18
2018-11-03T03:51:17.446Z,10.33
2018-11-03T03:53:45.921Z,10.30
2018-11-03T03:56:14.298Z,10.35
2018-11-03T03:58:42.621Z,10.15
2018-11-03T04:01:10.992Z,10.11
2018-11-03T04:03:39.344Z,10.20
2018-11-03T04:06:07.723Z,10.12
2018-11-03T04:08:36.083Z,10.28
2018-11-03T04:11:04.765Z,9.90
2018-11-03T04:13:33.164Z,9.81
2018-11-03T04:16:01.502Z,10.13
2018-11-03T04:18:29.796Z,10.08
2018-11-03T04:20:58.303Z,9.70
2018-11-03T04:23:26.664Z,9.55
2018-11-03T04:25:55.052Z,9.68
2018-11-03T04:28:23.398Z,9.38
2018-11-03T04:30:51.705Z,9.99
2018-11-03T04:33:20.042Z,9.76
2018-11-03T04:35:48.436Z,10.03
2018-11-03T04:38:16.706Z,9.99
2018-11-03T04:40:45.068Z,9.84
2018-11-03T04:43:13.412Z,10.04
2018-11-03T04:45:41.802Z,9.87
2018-11-03T04:48:10.087Z,9.81
2018-11-03T04:50:38.468Z,10.05
2018-11-03T04:53:06.893Z,9.74
2018-11-03T04:55:35.227Z,9.72
2018-11-03T04:58:03.496Z,9.29
2018-11-03T05:00:31.907Z,9.78
2018-11-03T05:03:00.244Z,9.53
2018-11-03T05:05:28.564Z,9.62
2018-11-03T05:07:56.945Z,9.61
2018-11-03T05:10:25.300Z,9.81
2018-11-03T05:12:53.631Z,9.55
2018-11-03T05:15:21.960Z,9.58
2018-11-03T05:17:50.327Z,9.69
2018-11-03T05:20:18.792Z,9.82
2018-11-03T05:22:47.279Z,9.79
2018-11-03T05:25:15.716Z,9.37
2018-11-03T05:27:44.188Z,9.53
2018-11-03T05:30:12.562Z,9.42
2018-11-03T05:32:40.930Z,9.64
2018-11-03T05:35:09.221Z,9.58
2018-11-03T05:37:38.094Z,9.59
2018-11-03T05:40:06.653Z,9.65
2018-11-03T05:42:35.052Z,9.82
2018-11-03T05:45:03.539Z,9.55
2018-11-03T05:47:31.976Z,9.60
2018-11-03T05:50:00.415Z,9.72
2018-11-03T05:52:28.861Z,9.52
2018-11-03T05:54:57.192Z,9.37
2018-11-03T05:57:25.530Z,9.31
2018-11-03T05:59:53.865Z,9.31
2018-11-03T06:02:22.240Z,9.50
2018-11-03T06:04:50.567Z,9.32
2018-11-03T06:07:19.009Z,9.39
2018-11-03T06:09:47.316Z,8.77
2018-11-03T06:12:15.596Z,8.89
2018-11-03T06:14:43.989Z,8.89
2018-11-03T06:17:12.381Z,9.35
2018-11-03T06:19:40.759Z,9.25
2018-11-03T06:22:09.137Z,9.11
2018-11-03T06:24:37.543Z,8.80
2018-11-03T06:27:06.008Z,8.74
2018-11-03T06:29:34.421Z,8.90
2018-11-03T06:32:02.910Z,9.10
2018-11-03T06:34:31.285Z,8.84
2018-11-03T06:36:59.733Z,9.09
2018-11-03T06:39:28.083Z,9.09
2018-11-03T06:41:56.448Z,9.04
2018-11-03T06:44:24.821Z,9.08
2018-11-03T06:46:53.146Z,8.91
2018-11-03T06:49:22.707Z,8.69
2018-11-03T06:51:52.359Z,9.23
2018-11-03T06:54:21.086Z,9.02
2018-11-03T06:56:49.378Z,9.04
2018-11-03T06:59:18.532Z,9.24
2018-11-03T07:01:47.079Z,9.25
2018-11-03T07:04:15.516Z,9.05
2018-11-03T07:06:43.839Z,9.15
2018-11-03T07:09:13.136Z,8.89
2018-11-03T07:11:41.524Z,9.07
2018-11-03T07:14:10.369Z,9.22
2018-11-03T07:16:38.727Z,9.16
2018-11-03T07:19:07.218Z,8.82
2018-11-03T07:21:35.628Z,9.01
2018-11-03T07:24:04.052Z,8.98
2018-11-03T07:26:32.372Z,9.19
2018-11-03T07:29:00.810Z,9.18
2018-11-03T07:31:29.182Z,9.22
2018-11-03T07:33:57.784Z,9.16
2018-11-03T07:36:26.085Z,9.50
2018-11-03T07:38:54.536Z,9.32
2018-11-03T07:41:22.811Z,9.53
2018-11-03T07:43:51.083Z,9.13
2018-11-03T07:46:19.422Z,9.66
2018-11-03T07:48:48.138Z,9.75
2018-11-03T07:51:16.361Z,9.86
2018-11-03T07:53:44.655Z,10.07
2018-11-03T07:56:12.987Z,10.16
2018-11-03T07:58:41.355Z,10.07
2018-11-03T08:01:09.812Z,10.58
2018-11-03T08:03:38.187Z,10.29
2018-11-03T08:06:06.551Z,10.35
2018-11-03T08:08:34.882Z,10.48
2018-11-03T08:11:03.388Z,10.91
2018-11-03T08:13:31.733Z,10.67
2018-11-03T08:16:00.341Z,10.47
2018-11-03T08:18:28.703Z,10.26
2018-11-03T08:20:57.107Z,10.92
2018-11-03T08:23:25.437Z,10.80
2018-11-03T08:25:53.845Z,11.07
2018-11-03T08:28:22.132Z,10.99
2018-11-03T08:30:50.499Z,11.18
2018-11-03T08:33:18.882Z,11.04
2018-11-03T08:35:47.264Z,11.51
2018-11-03T08:38:15.711Z,11.37
2018-11-03T08:40:43.996Z,11.54
2018-11-03T08:43:12.332Z,11.56
2018-11-03T08:45:40.743Z,11.44
2018-11-03T08:48:09.200Z,11.80
2018-11-03T08:50:37.527Z,11.96
2018-11-03T08:53:05.873Z,11.98
2018-11-03T08:55:34.267Z,12.04
2018-11-03T08:58:02.583Z,11.97
2018-11-03T09:00:31.019Z,12.23
2018-11-03T09:02:59.406Z,11.88
2018-11-03T09:05:27.757Z,12.21
2018-11-03T09:07:56.147Z,12.74
2018-11-03T09:10:24.496Z,12.10
2018-11-03T09:12:53.030Z,12.25
2018-11-03T09:15:21.494Z,12.34
2018-11-03T09:17:49.703Z,12.46
2018-11-03T09:20:18.058Z,12.54
2018-11-03T09:22:46.496Z,12.88
2018-11-03T09:25:15.680Z,13.00
2018-11-03T09:27:44.410Z,13.40
2018-11-03T09:30:14.937Z,13.43
2018-11-03T09:32:43.339Z,13.51
2018-11-03T09:35:12.824Z,13.28
2018-11-03T09:37:41.224Z,13.49
2018-11-03T09:40:11.871Z,13.67
2018-11-03T09:42:40.360Z,13.86
2018-11-03T09:45:09.691Z,13.77
2018-11-03T09:47:37.932Z,13.60
2018-11-03T09:50:07.176Z,13.64
2018-11-03T09:52:35.519Z,13.51
2018-11-03T09:55:03.904Z,13.54
2018-11-03T09:57:32.271Z,14.09
2018-11-03T10:00:00.623Z,14.27
2018-11-03T10:02:29.002Z,13.95
2018-11-03T10:04:57.419Z,14.20
2018-11-03T10:07:25.719Z,13.78
2018-11-03T10:09:54.147Z,14.46
2018-11-03T10:12:22.535Z,14.56
2018-11-03T10:14:50.925Z,14.30
2018-11-03T10:17:19.463Z,14.04
2018-11-03T10:19:47.792Z,14.17
2018-11-03T10:22:16.158Z,13.87
2018-11-03T10:24:44.599Z,13.86
2018-11-03T10:27:12.931Z,13.71
2018-11-03T10:29:41.269Z,13.71
2018-11-03T10:32:09.613Z,13.89
2018-11-03T10:34:38.020Z,13.78
2018-11-03T10:37:06.543Z,13.80
2018-11-03T10:39:34.976Z,14.01
2018-11-03T10:42:03.393Z,14.00
2018-11-03T10:44:31.827Z,13.75
2018-11-03T10:47:00.156Z,13.73
2018-11-03T10:49:28.617Z,13.70
2018-11-03T10:51:56.967Z,13.62
2018-11-03T10:54:25.503Z,13.76
2018-11-03T10:56:53.907Z,13.98
2018-11-03T10:59:22.483Z,14.01
2018-11-03T11:01:55.931Z,14.00
2018-11-03T11:04:29.588Z,13.84
2018-11-03T11:07:02.970Z,13.98
2018-11-03T11:09:35.420Z,14.35
2018-11-03T11:12:10.147Z,14.27
2018-11-03T11:14:38.585Z,14.15
2018-11-03T11:17:07.031Z,14.79
2018-11-03T11:19:35.341Z,15.38
2018-11-03T11:22:03.697Z,15.51
2018-11-03T11:24:32.190Z,15.73
2018-11-03T11:27:00.439Z,16.32
2018-11-03T11:29:28.796Z,16.60
2018-11-03T11:31:57.260Z,17.51
2018-11-03T11:34:25.645Z,18.58
2018-11-03T11:36:53.966Z,18.96
2018-11-03T11:39:22.297Z,19.48
2018-11-03T11:41:50.671Z,19.61
2018-11-03T11:44:19.088Z,19.75
2018-11-03T11:46:47.457Z,21.25
2018-11-03T11:49:15.860Z,21.16
2018-11-03T11:51:44.232Z,21.38
2018-11-03T11:54:12.752Z,22.12
2018-11-03T11:56:41.116Z,21.64
2018-11-03T11:59:09.589Z,22.35
2018-11-03T12:01:38.114Z,22.64
2018-11-03T12:04:06.676Z,22.69
2018-11-03T12:06:35.026Z,22.51
2018-11-03T12:09:03.515Z,22.87
2018-11-03T12:11:31.975Z,23.85
2018-11-03T12:14:00.311Z,22.15
2018-11-03T12:16:28.697Z,23.41
2018-11-03T12:18:57.010Z,24.22
2018-11-03T12:21:25.356Z,23.70
2018-11-03T12:23:53.710Z,23.13
2018-11-03T12:26:22.067Z,23.76
2018-11-03T12:28:50.447Z,24.65
2018-11-03T12:31:18.789Z,24.17
2018-11-03T12:33:47.200Z,24.99
2018-11-03T12:36:15.655Z,25.09
2018-11-03T12:38:44.387Z,24.04
2018-11-03T12:41:12.704Z,24.19
2018-11-03T12:43:41.040Z,24.88
2018-11-03T12:46:09.497Z,24.16
2018-11-03T12:48:37.975Z,24.68
2018-11-03T12:51:06.398Z,24.92
2018-11-03T12:53:34.714Z,24.25
2018-11-03T12:56:03.020Z,24.00
2018-11-03T12:58:31.344Z,24.96
2018-11-03T13:00:59.688Z,25.13
2018-11-03T13:03:27.997Z,25.89
2018-11-03T13:05:56.383Z,26.14
2018-11-03T13:08:24.827Z,26.00
2018-11-03T13:10:53.143Z,25.27
2018-11-03T13:13:21.587Z,24.71
2018-11-03T13:15:49.979Z,26.51
2018-11-03T13:18:18.357Z,25.84
2018-11-03T13:20:46.798Z,25.88
2018-11-03T13:23:15.178Z,25.42
2018-11-03T13:25:43.486Z,25.84
2018-11-03T13:28:11.866Z,26.22
2018-11-03T13:30:40.262Z,25.60
2018-11-03T13:33:08.607Z,24.49
2018-11-03T13:35:36.993Z,22.07
2018-11-03T13:38:05.513Z,25.14
2018-11-03T13:40:33.910Z,25.02
2018-11-03T13:43:02.346Z,26.37
2018-11-03T13:45:30.781Z,25.49
2018-11-03T13:47:59.255Z,26.73
2018-11-03T13:50:27.590Z,24.63
2018-11-03T13:52:56.016Z,25.92
2018-11-03T13:55:24.360Z,25.76
2018-11-03T13:57:52.740Z,24.58
2018-11-03T14:00:21.097Z,25.95
2018-11-03T14:02:50.252Z,24.78
2018-11-03T14:05:18.617Z,24.25
2018-11-03T14:07:46.971Z,23.54
2018-11-03T14:10:16.427Z,22.17
2018-11-03T14:12:45.655Z,22.75
2018-11-03T14:15:15.485Z,22.26
2018-11-03T14:17:43.853Z,23.23
2018-11-03T14:20:13.297Z,23.71
2018-11-03T14:22:42.130Z,21.66
2018-11-03T14:25:12.163Z,21.06
2018-11-03T14:27:41.136Z,19.38
2018-11-03T14:30:10.263Z,18.21
2018-11-03T14:32:38.681Z,19.25
2018-11-03T14:35:07.948Z,19.20
2018-11-03T14:37:44.929Z,18.16
2018-11-03T14:40:24.506Z,18.55
2018-11-03T14:42:52.999Z,17.94
2018-11-03T14:45:21.511Z,18.05
2018-11-03T14:47:49.870Z,17.55
2018-11-03T14:50:18.261Z,17.56
2018-11-03T14:52:46.663Z,17.83
2018-11-03T14:55:15.015Z,17.62
2018-11-03T14:57:43.323Z,17.90
2018-11-03T15:00:15.392Z,16.78
2018-11-03T15:02:43.872Z,17.13
2018-11-03T15:05:12.820Z,17.41
2018-11-03T15:07:41.342Z,16.78
2018-11-03T15:10:11.611Z,17.20
2018-11-03T15:12:40.689Z,16.97
2018-11-03T15:15:11.071Z,16.38
2018-11-03T15:17:39.411Z,16.86
2018-11-03T15:20:08.519Z,16.96
2018-11-03T15:22:37.015Z,16.51
2018-11-03T15:25:06.223Z,16.32
2018-11-03T15:27:34.664Z,16.86
2018-11-03T15:30:02.960Z,16.89
2018-11-03T15:32:31.419Z,16.39
2018-11-03T15:35:00.157Z,16.28
2018-11-03T15:37:28.475Z,16.31
2018-11-03T15:39:56.773Z,16.20
2018-11-03T15:42:25.174Z,15.78
2018-11-03T15:44:53.598Z,16.17
2018-11-03T15:47:22.028Z,15.40
2018-11-03T15:49:50.588Z,15.58
2018-11-03T15:52:18.988Z,15.35
2018-11-03T15:54:47.718Z,15.24
2018-11-03T15:57:16.086Z,15.57
2018-11-03T15:59:44.477Z,15.52
2018-11-03T16:02:12.961Z,15.45
2018-11-03T16:04:41.436Z,15.44
2018-11-03T16:07:09.811Z,15.00
2018-11-03T16:09:38.205Z,15.41
2018-11-03T16:12:07.327Z,14.84
2018-11-03T16:14:35.675Z,15.34
2018-11-03T16:17:04.119Z,14.62
2018-11-03T16:19:32.649Z,14.75
2018-11-03T16:22:01.085Z,14.76
2018-11-03T16:24:29.561Z,15.01
2018-11-03T16:26:58.013Z,14.83
2018-11-03T16:29:27.799Z,14.94
2018-11-03T16:31:56.360Z,14.53
2018-11-03T16:34:24.846Z,14.27
2018-11-03T16:36:53.313Z,14.52
2018-11-03T16:39:21.716Z,14.48
2018-11-03T16:41:50.198Z,14.49
2018-11-03T16:44:18.597Z,14.41
2018-11-03T16:46:47.221Z,13.89
2018-11-03T16:49:18.248Z,13.77
2018-11-03T16:51:46.769Z,14.21
2018-11-03T16:54:15.295Z,14.14
2018-11-03T16:56:44.398Z,13.97
2018-11-03T16:59:12.781Z,13.92
2018-11-03T17:01:41.084Z,14.07
2018-11-03T17:04:09.631Z,13.79
2018-11-03T17:06:38.085Z,13.81
2018-11-03T17:09:07.504Z,13.57
2018-11-03T17:11:35.952Z,13.77
2018-11-03T17:14:04.548Z,13.45
2018-11-03T17:16:32.989Z,13.84
2018-11-03T17:19:01.488Z,14.05
2018-11-03T17:21:29.955Z,14.04
2018-11-03T17:23:58.330Z,13.53
2018-11-03T17:26:26.751Z,12.98
2018-11-03T17:28:55.525Z,13.30
2018-11-03T17:31:23.987Z,13.32
2018-11-03T17:33:52.469Z,13.34
2018-11-03T17:36:20.957Z,13.45
2018-11-03T17:38:49.387Z,13.16
2018-11-03T17:41:17.812Z,13.37
2018-11-03T17:43:46.298Z,12.97
2018-11-03T17:46:14.791Z,12.95
2018-11-03T17:48:43.204Z,13.03
2018-11-03T17:51:11.631Z,12.74
2018-11-03T17:53:40.040Z,13.38
2018-11-03T17:56:08.389Z,13.20
2018-11-03T17:58:36.784Z,13.45
2018-11-03T18:01:05.442Z,13.21
2018-11-03T18:03:33.747Z,13.45
2018-11-03T18:06:02.121Z,13.46
2018-11-03T18:08:30.555Z,13.30
2018-11-03T18:10:58.985Z,13.13
2018-11-03T18:13:27.474Z,13.59
2018-11-03T18:15:55.974Z,13.74
2018-11-03T18:18:24.535Z,13.53
2018-11-03T18:20:52.967Z,13.66
2018-11-03T18:23:21.392Z,13.63
2018-11-03T18:25:49.876Z,13.51
2018-11-03T18:28:18.391Z,13.66
2018-11-03T18:30:46.918Z,13.80
2018-11-03T18:33:15.208Z,13.75
2018-11-03T18:35:43.598Z,13.65
2018-11-03T18:38:11.970Z,13.65
2018-11-03T18:40:40.429Z,13.35
2018-11-03T18:43:08.760Z,13.65
2018-11-03T18:45:37.276Z,12.63
2018-11-03T18:48:06.005Z,13.21
2018-11-03T18:50:34.383Z,13.57
2018-11-03T18:53:03.601Z,13.64
2018-11-03T18:55:32.046Z,12.80
2018-11-03T18:58:00.500Z,12.91
2018-11-03T19:00:28.907Z,12.69
2018-11-03T19:02:57.345Z,13.34
2018-11-03T19:05:25.708Z,13.36
2018-11-03T19:07:54.104Z,13.54
2018-11-03T19:10:22.476Z,13.60
2018-11-03T19:12:50.911Z,13.82
2018-11-03T19:15:19.356Z,13.50
2018-11-03T19:17:47.812Z,13.52
2018-11-03T19:20:16.473Z,13.72
2018-11-03T19:22:44.895Z,13.62
2018-11-03T19:25:14.091Z,13.79
2018-11-03T19:27:42.543Z,13.52
2018-11-03T19:30:12.220Z,13.08
2018-11-03T19:32:42.211Z,13.33
2018-11-03T19:35:10.704Z,13.33
2018-11-03T19:37:39.743Z,13.14
2018-11-03T19:40:09.556Z,13.13
2018-11-03T19:42:38.344Z,13.44
2018-11-03T19:45:07.551Z,13.48
2018-11-03T19:47:36.009Z,13.60
2018-11-03T19:50:05.567Z,13.37
2018-11-03T19:52:34.119Z,13.47
2018-11-03T19:55:02.434Z,13.33
2018-11-03T19:57:30.864Z,13.17
2018-11-03T19:59:59.285Z,12.93
2018-11-03T20:02:27.636Z,13.17
2018-11-03T20:04:56.009Z,13.44
2018-11-03T20:07:24.409Z,13.40
2018-11-03T20:09:52.892Z,13.43
2018-11-03T20:12:21.291Z,13.19
2018-11-03T20:14:49.788Z,13.44
2018-11-03T20:17:18.120Z,13.23
2018-11-03T20:19:46.574Z,13.17
2018-11-03T20:22:14.918Z,12.94
2018-11-03T20:24:43.296Z,13.24
2018-11-03T20:27:11.692Z,13.26
2018-11-03T20:29:40.108Z,13.33
2018-11-03T20:32:08.728Z,13.05
2018-11-03T20:34:37.043Z,13.01
2018-11-03T20:37:05.987Z,13.14
2018-11-03T20:39:34.498Z,13.01
2018-11-03T20:42:02.913Z,13.10
2018-11-03T20:44:31.409Z,13.00
2018-11-03T20:46:59.900Z,13.30
2018-11-03T20:49:28.310Z,13.13
2018-11-03T20:51:56.642Z,13.29
2018-11-03T20:54:24.982Z,12.97
2018-11-03T20:56:53.385Z,12.81
2018-11-03T20:59:21.976Z,12.54
2018-11-03T21:01:50.366Z,12.63
2018-11-03T21:04:18.695Z,12.85
2018-11-03T21:06:47.153Z,12.64
2018-11-03T21:09:15.584Z,12.93
2018-11-03T21:11:44.089Z,12.93
2018-11-03T21:14:12.395Z,12.70
2018-11-03T21:16:40.882Z,12.74
2018-11-03T21:19:09.265Z,12.91
2018-11-03T21:21:38.528Z,13.08
2018-11-03T21:24:06.947Z,12.91
2018-11-03T21:26:35.202Z,12.93
2018-11-03T21:29:03.533Z,12.80
2018-11-03T21:31:31.886Z,12.91
2018-11-03T21:34:00.354Z,12.87
2018-11-03T21:36:28.689Z,12.85
2018-11-03T21:38:57.156Z,12.55
2018-11-03T21:41:25.667Z,12.65
2018-11-03T21:43:54.004Z,12.82
2018-11-03T21:46:22.435Z,12.73
2018-11-03T21:48:50.815Z,12.55
2018-11-03T21:51:19.206Z,12.76
2018-11-03T21:53:47.618Z,12.55
2018-11-03T21:56:16.171Z,12.46
2018-11-03T21:58:44.642Z,12.64
2018-11-03T22:01:13.033Z,12.60
2018-11-03T22:03:42.554Z,12.70
2018-11-03T22:06:10.900Z,12.73
2018-11-03T22:08:39.216Z,12.96
2018-11-03T22:11:07.580Z,12.88
2018-11-03T22:13:36.017Z,12.74
2018-11-03T22:16:04.504Z,12.80
2018-11-03T22:18:33.012Z,12.73
2018-11-03T22:21:01.544Z,12.53
2018-11-03T22:23:30.061Z,12.82
2018-11-03T22:25:58.469Z,12.83
2018-11-03T22:28:26.823Z,12.84
2018-11-03T22:30:55.348Z,12.57
2018-11-03T22:33:23.772Z,12.81
2018-11-03T22:35:52.140Z,12.47
2018-11-03T22:38:20.934Z,12.22
2018-11-03T22:44:18.955Z,12.75
2018-11-03T22:47:16.217Z,13.01
2018-11-03T22:50:05.455Z,13.06
2018-11-03T23:10:16.936Z,12.76
2018-11-03T23:23:11.374Z,12.64
2018-11-03T23:25:39.889Z,12.71
2018-11-03T23:28:08.368Z,12.52
2018-11-03T23:30:36.826Z,12.48
2018-11-03T23:33:05.301Z,12.49
2018-11-03T23:35:33.873Z,12.53
2018-11-03T23:38:02.321Z,12.42
2018-11-03T23:40:30.801Z,12.29
2018-11-03T23:42:59.163Z,12.44
2018-11-03T23:45:27.669Z,12.20
2018-11-03T23:47:56.288Z,12.15
2018-11-03T23:50:24.845Z,12.43
2018-11-03T23:52:53.180Z,12.28
2018-11-03T23:55:21.703Z,11.90
2018-11-03T23:57:50.083Z,12.31
